»·PEaware :: UAL1399 KLAX-KLAS

UAL1399 :: KLAX-KLAS

FLIGHT INFORMATION

Flight Status: Arrived
Operator:
United Airlines
More flights by this operator :: More flights under this callsign
Pilot: David C. (16084)
Aircraft: AIRBUS A320
(A320)
More flights by this aircraft type
Origin: KLAX Los Angeles Intl
United States
Destination: KLAS McCarran Intl
United States
More flights between these airports :: More routes between these airports
Route: ORCKA3 MISEN KEPEC6
File this flight plan on PilotEdge
Remarks:
Altitude:
(Current/Filed)
29,000ft
Speed:
(Current/Filed)
474kts
Departed: 29-Nov-18 01:11 PM
Arrived: 29-Nov-18 01:58 PM
Distance/Time
Traveled:
206nm/0:46
Distance/Time
To Go:
Arrived

Flight Plot

Page will automatically refresh every two minutes.

Flight plan parsing failed; only flown route is shown


Map Options




Map Legend


Flown Route
Filed Route
Departure Airport
Arrival Airport
Navaid (VOR, NDB)
Fix

Horizontal Profiles

Position Reports

Time Latitude Longitude Heading Altitude Ground
Speed
29-Nov-18 12:35 33.941338 -118.397632 84 136ft 0kts
29-Nov-18 12:36 33.941338 -118.397632 84 136ft 0kts
29-Nov-18 12:37 33.941338 -118.397632 84 136ft 0kts
29-Nov-18 12:38 33.941338 -118.397632 84 136ft 0kts
29-Nov-18 12:39 33.941338 -118.397632 84 136ft 0kts
29-Nov-18 12:40 33.941338 -118.397632 84 136ft 0kts
29-Nov-18 12:41 33.941338 -118.397632 84 136ft 0kts
29-Nov-18 12:42 33.941338 -118.397632 84 136ft 0kts
29-Nov-18 12:43 33.941338 -118.397632 84 136ft 0kts
29-Nov-18 12:44 33.941338 -118.397632 84 136ft 0kts
29-Nov-18 12:45 33.941338 -118.397632 84 136ft 0kts
29-Nov-18 12:46 33.941338 -118.397632 84 136ft 0kts
29-Nov-18 12:47 33.941338 -118.397632 84 136ft 0kts
29-Nov-18 12:48 33.941338 -118.397632 84 136ft 0kts
29-Nov-18 12:49 33.941338 -118.397632 84 136ft 0kts
29-Nov-18 12:50 33.941338 -118.397632 84 136ft 0kts
29-Nov-18 12:51 33.941338 -118.397632 84 136ft 0kts
29-Nov-18 12:52 33.941338 -118.397632 84 136ft 0kts
29-Nov-18 12:53 33.941338 -118.397632 84 136ft 0kts
29-Nov-18 12:54 33.941338 -118.397632 84 136ft 0kts
29-Nov-18 12:55 33.941360 -118.398042 116 136ft 2kts
29-Nov-18 12:56 33.941737 -118.398365 177 136ft 1kts
29-Nov-18 12:57 33.941770 -118.398368 174 136ft 0kts
29-Nov-18 12:58 33.941770 -118.398368 174 136ft 0kts
29-Nov-18 12:59 33.941770 -118.398368 174 136ft 0kts
29-Nov-18 13:00 33.941770 -118.398368 174 136ft 0kts
29-Nov-18 13:01 33.941770 -118.398368 174 136ft 0kts
29-Nov-18 13:02 33.941770 -118.398368 174 136ft 0kts
29-Nov-18 13:03 33.941770 -118.398368 174 136ft 0kts
29-Nov-18 13:04 33.941770 -118.398368 174 136ft 0kts
29-Nov-18 13:05 33.941728 -118.398362 173 136ft 0kts
29-Nov-18 13:06 33.941599 -118.398343 172 136ft 0kts
29-Nov-18 13:07 33.941315 -118.398288 171 136ft 5kts
29-Nov-18 13:08 33.939091 -118.397066 87 136ft 13kts
29-Nov-18 13:09 33.939720 -118.391030 83 136ft 19kts
29-Nov-18 13:10 33.940344 -118.384492 82 136ft 20kts
29-Nov-18 13:11 33.940754 -118.380466 91 136ft 0kts
29-Nov-18 13:12 33.940754 -118.380466 91 136ft 0kts
29-Nov-18 13:13 33.939779 -118.380940 264 136ft 14kts
29-Nov-18 13:14 33.935466 -118.422116 263 1175ft 184kts
29-Nov-18 13:15 33.924938 -118.484883 248 4268ft 197kts
29-Nov-18 13:16 33.905968 -118.545124 236 5031ft 194kts
29-Nov-18 13:17 33.863740 -118.527329 101 7015ft 243kts
29-Nov-18 13:18 33.903148 -118.462239 35 9552ft 268kts
29-Nov-18 13:19 33.955404 -118.392785 57 11366ft 323kts
29-Nov-18 13:20 34.006736 -118.302255 57 13959ft 346kts
29-Nov-18 13:21 34.061725 -118.205354 57 16419ft 365kts
29-Nov-18 13:22 34.116206 -118.109150 57 18529ft 381kts
29-Nov-18 13:23 34.176085 -118.002959 57 20527ft 397kts
29-Nov-18 13:24 34.238587 -117.891743 56 22363ft 413kts
29-Nov-18 13:25 34.303674 -117.775555 56 24080ft 427kts
29-Nov-18 13:26 34.370235 -117.658830 51 26014ft 428kts
29-Nov-18 13:27 34.440217 -117.541693 51 27447ft 441kts
29-Nov-18 13:28 34.512050 -117.420952 51 28766ft 453kts
29-Nov-18 13:29 34.587376 -117.293854 52 28823ft 495kts
29-Nov-18 13:30 34.669533 -117.154747 52 28818ft 530kts
29-Nov-18 13:31 34.756779 -117.006462 53 28811ft 554kts
29-Nov-18 13:32 34.845942 -116.854317 53 28807ft 558kts
29-Nov-18 13:33 34.935106 -116.701181 54 28467ft 556kts
29-Nov-18 13:34 35.021163 -116.548347 54 26662ft 551kts
29-Nov-18 13:35 35.108189 -116.397782 47 23545ft 549kts
29-Nov-18 13:36 35.205991 -116.274201 44 21258ft 529kts
29-Nov-18 13:37 35.305257 -116.149476 44 18960ft 511kts
29-Nov-18 13:38 35.401650 -116.027895 44 16725ft 494kts
29-Nov-18 13:39 35.494958 -115.909789 44 14666ft 475kts
29-Nov-18 13:40 35.581154 -115.800359 44 13763ft 425kts
29-Nov-18 13:41 35.649859 -115.712850 44 13182ft 384kts
29-Nov-18 13:42 35.720217 -115.622977 44 13024ft 363kts
29-Nov-18 13:43 35.802586 -115.571364 352 13024ft 337kts
29-Nov-18 13:44 35.895494 -115.567547 353 13019ft 338kts
29-Nov-18 13:45 35.982702 -115.534609 56 12783ft 362kts
29-Nov-18 13:46 36.017575 -115.420721 71 11319ft 353kts
29-Nov-18 13:47 36.027487 -115.313482 102 10588ft 314kts
29-Nov-18 13:48 36.019385 -115.210730 102 9549ft 301kts
29-Nov-18 13:49 36.012684 -115.114013 101 8336ft 274kts
29-Nov-18 13:50 36.007054 -115.025227 101 8014ft 255kts
29-Nov-18 13:51 36.002091 -114.941976 101 8009ft 246kts
29-Nov-18 13:52 35.997379 -114.863335 102 8012ft 223kts
29-Nov-18 13:53 36.016691 -114.793313 29 6997ft 250kts
29-Nov-18 13:54 36.060507 -114.814571 274 5589ft 180kts
29-Nov-18 13:55 36.069062 -114.870652 272 5009ft 165kts
29-Nov-18 13:56 36.074093 -114.925560 262 5007ft 161kts
29-Nov-18 13:57 36.073938 -114.980439 262 4522ft 160kts
29-Nov-18 13:58 36.073854 -115.032995 262 3674ft 144kts
29-Nov-18 13:59 36.073737 -115.080795 264 2938ft 141kts
29-Nov-18 14:00 36.073674 -115.128242 265 2219ft 138kts
29-Nov-18 14:01 36.074691 -115.150507 304 2190ft 0kts
29-Nov-18 14:02 36.074833 -115.150763 304 2190ft 6kts
29-Nov-18 14:03 36.077903 -115.150467 88 2190ft 24kts
29-Nov-18 14:04 36.078325 -115.143080 83 2190ft 18kts
29-Nov-18 14:05 36.082844 -115.142414 27 2190ft 16kts
29-Nov-18 14:06 36.085311 -115.140006 0 2190ft 0kts
29-Nov-18 14:07 36.085311 -115.140006 0 2190ft 0kts

Navigation Log

Ident Type
Flight plan parsing failed, navigation log unavailable